Time;durP1;ratioP1;P1;durP2;ratioP2;P2;SDS_P1;SDS_P2;PMS_P1;PMS_P2;Temp;Humidity;BMP_temperature;BMP_pressure;BME280_temperature;BME280_humidity;BME280_pressure;Samples;Min_cycle;Max_cycle;Signal;HPM_P1;HPM_P2
2022/08/20 00:00:52;;;;;;;;;2.00;2.00;;;;;21.40;57.07;101480.31;5120694;27;45220;-60
2022/08/20 00:03:30;;;;;;;;;4.00;2.00;;;;;21.41;56.62;101478.47;5116290;27;45443;-60
2022/08/20 00:06:10;;;;;;;;;2.75;2.75;;;;;21.39;56.22;101477.69;5105436;27;46019;-60
2022/08/20 00:08:36;;;;;;;;;4.75;2.00;;;;;21.36;56.63;101473.34;5110998;27;45489;-60
2022/08/20 00:11:03;;;;;;;;;3.00;2.00;;;;;21.33;55.81;101469.97;5106917;27;46118;-60
2022/08/20 00:13:34;;;;;;;;;2.50;2.25;;;;;21.31;56.72;101470.06;5120478;27;45426;-59
2022/08/20 00:15:59;;;;;;;;;1.50;1.50;;;;;21.32;56.51;101466.38;5119436;27;45325;-60
2022/08/20 00:18:25;;;;;;;;;3.25;2.00;;;;;21.31;56.85;101467.34;5118724;27;45403;-60
2022/08/20 00:20:53;;;;;;;;;3.00;1.00;;;;;21.26;56.18;101464.06;5115422;27;46429;-59
2022/08/20 00:23:20;;;;;;;;;1.00;1.00;;;;;21.26;56.23;101459.50;5117006;27;45428;-60
2022/08/20 00:25:46;;;;;;;;;2.75;2.00;;;;;21.25;56.32;101459.59;5119799;27;45461;-60
2022/08/20 00:28:12;;;;;;;;;4.00;2.00;;;;;21.23;56.85;101465.16;5119361;27;45541;-60
2022/08/20 00:30:40;;;;;;;;;1.00;1.00;;;;;21.17;56.40;101454.69;5120204;27;46262;-59
2022/08/20 00:33:09;;;;;;;;;3.75;1.25;;;;;21.20;57.05;101469.88;5120428;27;45541;-60
2022/08/20 00:35:39;;;;;;;;;4.25;2.00;;;;;21.18;57.07;101466.41;5119545;27;45337;-60
2022/08/20 00:38:05;;;;;;;;;4.75;3.00;;;;;21.07;57.07;101454.41;5115248;27;45534;-60
2022/08/20 00:40:37;;;;;;;;;3.00;1.75;;;;;21.10;57.32;101462.34;5120282;27;45433;-60
2022/08/20 00:43:07;;;;;;;;;1.00;1.00;;;;;21.03;56.67;101461.03;5101194;27;45658;-60
2022/08/20 00:45:34;;;;;;;;;4.75;1.75;;;;;21.01;56.92;101453.94;5119109;27;45388;-59
2022/08/20 00:48:00;;;;;;;;;3.25;2.25;;;;;21.07;57.32;101464.41;5113831;27;46066;-60
2022/08/20 00:50:32;;;;;;;;;1.50;1.50;;;;;21.04;56.96;101462.75;5118776;27;45409;-59
2022/08/20 00:52:58;;;;;;;;;2.75;1.50;;;;;;;;5118077;27;45369;-59
2022/08/20 00:55:25;;;;;;;;;6.50;3.00;;;;;21.01;56.93;101453.94;5119379;27;45384;-59
2022/08/20 00:57:55;;;;;;;;;1.00;1.00;;;;;21.04;56.94;101462.75;5115228;27;45417;-60
2022/08/20 01:00:30;;;;;;;;;2.75;1.00;;;;;20.94;57.25;101450.75;5118544;27;47357;-59
2022/08/20 01:02:57;;;;;;;;;1.75;1.00;;;;;21.03;56.75;101466.47;5119189;27;45536;-60
2022/08/20 01:05:23;;;;;;;;;3.00;2.00;;;;;21.00;56.91;101457.63;5119290;27;45358;-59
2022/08/20 01:07:52;;;;;;;;;2.25;1.75;;;;;20.99;56.77;101467.59;5107553;27;45507;-59
2022/08/20 01:10:21;;;;;;;;;4.25;2.00;;;;;20.99;57.39;101466.75;5114863;27;45359;-60
2022/08/20 01:12:49;;;;;;;;;1.00;1.00;;;;;20.96;56.72;101462.38;5121937;27;45451;-59
2022/08/20 01:15:17;;;;;;;;;2.00;2.00;;;;;20.90;57.45;101451.94;5123759;27;45329;-59
2022/08/20 01:17:48;;;;;;;;;1.75;1.50;;;;;20.95;56.95;101460.66;5122259;27;46192;-59
2022/08/20 01:20:18;;;;;;;;;3.00;2.00;;;;;20.93;57.27;101457.13;5121060;27;45473;-59
2022/08/20 01:25:51;;;;;;;;;1.50;1.00;;;;;20.91;57.33;101456.38;5122786;27;45289;-59
2022/08/20 01:28:22;;;;;;;;;3.00;2.00;;;;;20.89;57.32;101450.19;5122664;27;45457;-59
2022/08/20 01:30:47;;;;;;;;;1.50;1.50;;;;;20.90;57.67;101452.81;5121935;27;46544;-59
2022/08/20 01:33:12;;;;;;;;;2.00;2.00;;;;;20.89;57.83;101452.91;5121980;27;45331;-59
2022/08/20 01:35:40;;;;;;;;;3.00;2.75;;;;;20.92;57.58;101461.72;5122429;27;45420;-60
2022/08/20 01:38:06;;;;;;;;;4.25;1.50;;;;;20.92;57.22;101466.28;5122218;27;45480;-59
2022/08/20 01:40:55;;;;;;;;;1.50;1.50;;;;;20.94;57.19;101471.59;5121708;27;46187;-59
2022/08/20 01:43:22;;;;;;;;;1.75;1.75;;;;;20.89;57.05;101472.75;5123004;27;45386;-60
2022/08/20 01:45:48;;;;;;;;;2.00;2.00;;;;;20.93;57.16;101473.41;5122901;27;45393;-60
2022/08/20 01:48:14;;;;;;;;;2.50;1.25;;;;;20.91;57.49;101476.25;5118849;27;45533;-60
2022/08/20 01:50:43;;;;;;;;;1.00;1.00;;;;;20.88;57.57;101478.28;5120094;27;45404;-59
2022/08/20 01:53:19;;;;;;;;;4.00;2.00;;;;;20.87;57.69;101477.41;5122264;27;45384;-59
2022/08/20 01:55:45;;;;;;;;;2.00;2.00;;;;;20.88;57.59;101484.59;5123155;27;45275;-59
2022/08/20 01:58:11;;;;;;;;;2.25;1.75;;;;;20.87;57.67;101485.56;5122801;27;45240;-59
2022/08/20 02:00:36;;;;;;;;;3.00;2.00;;;;;20.86;57.19;101483.81;5115244;27;45228;-59
2022/08/20 02:03:03;;;;;;;;;2.00;1.75;;;;;20.83;57.70;101492.16;5110879;27;45305;-60
2022/08/20 02:05:29;;;;;;;;;4.75;1.75;;;;;20.84;57.73;101493.88;5095737;27;45421;-59
2022/08/20 02:07:55;;;;;;;;;4.75;1.75;;;;;20.75;57.87;101469.19;5107796;27;45677;-59
2022/08/20 02:10:22;;;;;;;;;1.50;1.00;;;;;20.79;57.61;101496.03;5117852;27;46191;-59
2022/08/20 02:12:48;;;;;;;;;2.50;1.25;;;;;20.78;57.42;101491.59;5115586;27;45512;-59
2022/08/20 02:15:13;;;;;;;;;2.00;2.00;;;;;20.76;57.59;101500.78;5122548;27;45573;-59
2022/08/20 02:17:40;;;;;;;;;2.00;2.00;;;;;20.67;57.56;101484.09;5121187;27;45551;-59
2022/08/20 02:20:09;;;;;;;;;5.00;2.00;;;;;20.75;57.60;101508.06;5118947;27;46682;-59
2022/08/20 02:22:51;;;;;;;;;2.00;1.25;;;;;20.74;57.68;101503.59;5120414;27;45507;-60
2022/08/20 02:25:21;;;;;;;;;2.00;2.00;;;;;20.76;58.09;101500.78;5115404;27;45372;-59
2022/08/20 02:27:47;;;;;;;;;2.00;1.50;;;;;20.71;57.78;101496.53;5102544;27;45390;-59
2022/08/20 02:30:19;;;;;;;;;3.50;1.00;;;;;20.75;57.49;101502.63;5121740;27;46040;-59
2022/08/20 02:32:45;;;;;;;;;3.75;3.25;;;;;20.70;57.48;101493.91;5121275;27;45555;-59
2022/08/20 02:35:12;;;;;;;;;5.25;3.50;;;;;20.71;57.66;101490.22;5120724;27;45354;-59
2022/08/20 02:37:42;;;;;;;;;2.00;1.00;;;;;20.66;57.60;101498.63;5099744;27;45456;-59
2022/08/20 02:40:10;;;;;;;;;3.50;2.00;;;;;20.64;57.91;101500.56;5110074;27;47223;-59
2022/08/20 02:42:38;;;;;;;;;1.00;1.00;;;;;20.61;58.08;101500.72;5111067;27;45341;-59
2022/08/20 02:45:05;;;;;;;;;3.25;3.00;;;;;20.54;58.03;101494.81;5107274;27;45313;-60
2022/08/20 02:47:30;;;;;;;;;3.00;3.00;;;;;20.55;58.26;101501.13;5122113;27;45396;-59
2022/08/20 02:49:56;;;;;;;;;4.00;2.25;;;;;20.54;58.29;101502.09;5114346;27;45429;-59
2022/08/20 02:52:22;;;;;;;;;5.50;3.00;;;;;20.53;58.31;101503.94;5108690;27;45307;-59
2022/08/20 02:54:49;;;;;;;;;2.25;2.00;;;;;20.45;58.56;101489.13;5103425;27;45494;-59
2022/08/20 02:57:19;;;;;;;;;2.50;1.50;;;;;20.46;58.19;101501.69;5112129;27;45495;-59
2022/08/20 02:59:45;;;;;;;;;4.00;2.00;;;;;20.41;58.49;101498.41;5117407;27;47322;-59
2022/08/20 03:02:12;;;;;;;;;3.00;2.00;;;;;20.46;58.43;101505.25;5120559;27;45245;-59
2022/08/20 03:04:37;;;;;;;;;2.25;2.00;;;;;20.40;58.86;101494.81;5105249;27;45333;-59
2022/08/20 03:07:04;;;;;;;;;3.00;3.00;;;;;20.43;58.24;101505.47;5109965;27;45428;-59
2022/08/20 03:09:30;;;;;;;;;2.25;2.00;;;;;20.36;58.65;101490.53;5114034;27;45499;-59
2022/08/20 03:11:55;;;;;;;;;4.75;3.00;;;;;20.40;58.70;101504.78;5120956;27;45441;-59
2022/08/20 03:14:21;;;;;;;;;3.00;2.00;;;;;20.33;58.33;101479.88;5120425;27;45430;-59
2022/08/20 03:16:46;;;;;;;;;3.25;3.00;;;;;20.38;58.74;101498.56;5121252;27;45337;-59
2022/08/20 03:19:12;;;;;;;;;3.50;2.00;;;;;20.30;58.81;101483.66;5119830;27;46251;-59
2022/08/20 03:21:38;;;;;;;;;2.00;2.00;;;;;20.34;58.47;101489.78;5119989;27;45300;-60
2022/08/20 03:24:03;;;;;;;;;2.00;2.00;;;;;20.27;58.80;101491.97;5119874;27;45522;-59
2022/08/20 03:26:28;;;;;;;;;2.00;1.75;;;;;20.32;58.94;101505.25;5121577;27;45487;-59
2022/08/20 03:28:54;;;;;;;;;2.50;2.00;;;;;20.27;58.67;101493.84;5120082;27;46417;-59
2022/08/20 03:31:20;;;;;;;;;5.00;2.25;;;;;20.25;58.69;101495.78;5120658;27;45413;-59
2022/08/20 03:33:45;;;;;;;;;3.75;1.50;;;;;20.23;59.02;101490.44;5119915;27;45346;-59
2022/08/20 03:36:10;;;;;;;;;1.00;1.00;;;;;20.25;58.97;101502.06;5120006;27;45568;-59
2022/08/20 03:38:36;;;;;;;;;1.00;1.00;;;;;20.24;59.37;101500.31;5119523;27;46127;-59
2022/08/20 03:41:01;;;;;;;;;2.25;1.00;;;;;20.17;59.12;101496.22;5120467;27;45271;-59
2022/08/20 03:43:27;;;;;;;;;3.00;3.00;;;;;20.22;59.07;101502.25;5120423;27;45487;-59
2022/08/20 03:45:53;;;;;;;;;1.75;1.75;;;;;20.13;59.15;101483.81;5120934;27;45663;-59
2022/08/20 03:48:20;;;;;;;;;2.25;1.00;;;;;20.16;59.07;101494.47;5120170;27;45449;-59
2022/08/20 03:50:47;;;;;;;;;2.25;2.25;;;;;20.12;59.22;101504.63;5119289;27;45422;-59
2022/08/20 03:53:13;;;;;;;;;3.00;2.00;;;;;20.12;59.55;101504.63;5118066;27;45489;-59
2022/08/20 03:55:40;;;;;;;;;4.00;2.75;;;;;20.11;59.33;101510.13;5118198;27;45453;-60
2022/08/20 03:58:09;;;;;;;;;2.00;2.00;;;;;20.02;59.14;101491.75;5118953;27;46375;-59
2022/08/20 04:00:47;;;;;;;;;1.75;1.75;;;;;20.04;59.32;101506.06;5083573;27;45353;-59
2022/08/20 04:03:14;;;;;;;;;3.00;3.00;;;;;20.03;59.36;101505.19;5119350;27;45452;-59
2022/08/20 04:05:40;;;;;;;;;1.25;1.25;;;;;20.03;59.50;101510.63;5120780;27;45301;-59
2022/08/20 04:08:10;;;;;;;;;2.00;2.00;;;;;20.03;59.63;101515.16;5104844;27;47244;-59
2022/08/20 04:10:36;;;;;;;;;2.00;2.00;;;;;19.98;59.56;101510.03;5120219;27;45462;-59
2022/08/20 04:13:02;;;;;;;;;2.00;2.00;;;;;19.97;59.86;101513.69;5119497;27;45406;-59
2022/08/20 04:15:28;;;;;;;;;2.00;1.50;;;;;19.70;59.73;101467.41;5120460;27;45329;-59
2022/08/20 04:17:53;;;;;;;;;3.00;2.25;;;;;19.89;59.58;101503.28;5119618;27;45271;-59
2022/08/20 04:20:22;;;;;;;;;2.25;2.00;;;;;19.86;59.61;101498.06;5120315;27;45236;-59
2022/08/20 04:22:52;;;;;;;;;2.00;2.00;;;;;19.90;59.70;101507.75;5116783;27;45494;-59
2022/08/20 04:25:18;;;;;;;;;2.00;2.00;;;;;19.90;59.67;101510.47;5119537;27;45557;-59
2022/08/20 04:27:45;;;;;;;;;3.00;3.00;;;;;19.84;59.58;101499.13;5105936;27;46082;-59
2022/08/20 04:30:13;;;;;;;;;2.75;2.00;;;;;19.87;59.70;101510.66;5119285;27;45396;-59
2022/08/20 04:32:40;;;;;;;;;3.00;1.75;;;;;19.87;59.46;101509.78;5120771;27;45385;-59
2022/08/20 04:35:07;;;;;;;;;6.00;3.50;;;;;19.85;59.56;101515.28;5118774;27;45345;-59
2022/08/20 04:37:33;;;;;;;;;3.50;1.00;;;;;19.77;59.67;101510.31;5118366;27;47373;-59
2022/08/20 04:42:51;;;;;;;;;2.25;2.25;;;;;19.78;59.75;101508.50;5121241;27;45369;-59
2022/08/20 04:45:17;;;;;;;;;2.00;2.00;;;;;19.80;59.68;101514.69;5123064;27;45310;-59
2022/08/20 04:47:43;;;;;;;;;2.00;1.00;;;;;19.82;59.52;101512.75;5103862;27;45403;-59
2022/08/20 04:50:09;;;;;;;;;4.00;2.00;;;;;19.73;59.73;101503.31;5118978;27;45405;-59
2022/08/20 04:52:36;;;;;;;;;2.25;1.75;;;;;19.77;59.71;101510.31;5122917;27;45621;-59
2022/08/20 04:55:02;;;;;;;;;5.00;2.50;;;;;19.76;59.67;101500.47;5120166;27;45243;-59
2022/08/20 04:57:27;;;;;;;;;3.00;1.00;;;;;19.78;59.56;101505.78;5123576;27;45335;-59
2022/08/20 04:59:53;;;;;;;;;2.00;1.00;;;;;19.70;59.64;101500.78;5116223;27;45243;-59
2022/08/20 05:02:20;;;;;;;;;2.75;2.00;;;;;19.77;59.59;101529.28;5103780;27;45457;-59
2022/08/20 05:04:46;;;;;;;;;2.25;1.25;;;;;19.76;59.94;101529.38;5122737;27;46410;-59
2022/08/20 05:07:15;;;;;;;;;3.25;2.50;;;;;19.73;59.77;101527.69;5121173;27;46247;-59
2022/08/20 05:09:41;;;;;;;;;4.00;2.75;;;;;19.67;59.68;101525.34;5111197;27;45183;-59
2022/08/20 05:12:08;;;;;;;;;4.50;2.00;;;;;19.74;59.73;101536.69;5106926;27;45386;-59
2022/08/20 05:14:34;;;;;;;;;2.00;2.00;;;;;19.72;59.57;101535.91;5122362;27;45248;-59
2022/08/20 05:17:04;;;;;;;;;5.00;3.75;;;;;19.71;59.80;101537.75;5123196;27;47067;-59
2022/08/20 05:19:30;;;;;;;;;2.00;2.00;;;;;19.66;59.73;101537.13;5120004;27;45299;-59
2022/08/20 05:21:55;;;;;;;;;3.00;2.00;;;;;19.63;59.66;101532.78;5110494;27;45385;-59
2022/08/20 05:24:20;;;;;;;;;3.00;2.00;;;;;19.68;59.65;101539.75;5113749;27;48555;-59
2022/08/20 05:26:46;;;;;;;;;4.00;2.25;;;;;19.66;59.62;101537.13;5123314;27;45943;-59
2022/08/20 05:29:11;;;;;;;;;3.00;2.00;;;;;19.64;59.62;101541.75;5123222;27;45231;-59
2022/08/20 05:31:38;;;;;;;;;2.50;1.75;;;;;19.63;59.76;101540.03;5123278;27;45533;-59
2022/08/20 05:34:08;;;;;;;;;4.25;3.50;;;;;19.64;59.63;101539.06;5118621;27;45164;-59
2022/08/20 05:36:35;;;;;;;;;1.75;1.75;;;;;19.63;59.95;101540.03;5122530;27;46241;-59
2022/08/20 05:39:00;;;;;;;;;2.50;1.75;;;;;19.65;59.52;101545.38;5110076;27;45544;-59
2022/08/20 05:41:28;;;;;;;;;4.00;2.00;;;;;19.62;59.39;101543.69;5122770;27;45465;-59
2022/08/20 05:43:54;;;;;;;;;3.00;3.00;;;;;19.65;59.53;101554.34;5121858;27;45240;-59
2022/08/20 05:46:19;;;;;;;;;0.75;0.50;;;;;19.66;59.69;101555.22;5122891;27;45345;-59
2022/08/20 05:48:44;;;;;;;;;5.25;3.50;;;;;19.56;59.79;101547.63;5121789;27;45422;-59
2022/08/20 05:51:10;;;;;;;;;2.00;1.00;;;;;19.62;59.73;101563.50;5121630;27;45422;-59
2022/08/20 05:53:36;;;;;;;;;1.50;1.50;;;;;19.58;59.52;101544.84;5117219;27;45485;-59
2022/08/20 05:56:02;;;;;;;;;3.75;2.50;;;;;19.62;59.39;101558.09;5113835;27;46359;-59
2022/08/20 05:58:28;;;;;;;;;7.00;1.00;;;;;19.58;59.76;101544.84;5121618;27;45460;-59
2022/08/20 06:00:54;;;;;;;;;4.75;2.00;;;;;19.62;59.58;101560.81;5122807;27;45420;-59
2022/08/20 06:06:07;;;;;;;;;2.00;2.00;;;;;19.65;59.44;101569.75;5120469;27;45686;-59
2022/08/20 06:08:32;;;;;;;;;2.00;2.00;;;;;19.66;59.76;101571.47;5114613;27;45492;-59
2022/08/20 06:10:57;;;;;;;;;3.75;3.75;;;;;19.63;59.55;101572.53;5122901;27;45124;-59
2022/08/20 06:13:23;;;;;;;;;3.00;3.00;;;;;19.61;59.60;101569.91;5119641;27;47210;-59
2022/08/20 06:15:49;;;;;;;;;2.25;2.25;;;;;19.65;59.62;101573.31;5121390;27;46279;-59
2022/08/20 06:18:15;;;;;;;;;3.50;2.00;;;;;19.58;59.50;101567.38;5108469;27;45464;-60
2022/08/20 06:20:40;;;;;;;;;2.25;1.00;;;;;19.63;59.83;101572.53;5117577;27;45405;-60
2022/08/20 06:23:06;;;;;;;;;3.00;3.00;;;;;19.63;59.70;101577.94;5112829;27;45399;-60
2022/08/20 06:25:36;;;;;;;;;2.50;2.50;;;;;19.59;59.59;101571.81;5120836;27;46313;-61
2022/08/20 06:28:03;;;;;;;;;3.00;1.50;;;;;19.59;59.60;101568.22;5113756;27;45244;-61
2022/08/20 06:30:28;;;;;;;;;3.00;3.00;;;;;19.56;59.86;101566.59;5121160;27;45177;-61
2022/08/20 06:32:53;;;;;;;;;3.00;2.50;;;;;19.66;60.21;101576.88;5121152;27;45224;-60
2022/08/20 06:35:19;;;;;;;;;4.25;3.00;;;;;19.65;59.98;101575.16;5121050;27;47299;-60
2022/08/20 06:37:44;;;;;;;;;3.50;2.75;;;;;19.70;60.01;101576.63;5120298;27;45218;-60
2022/08/20 06:40:22;;;;;;;;;2.50;2.50;;;;;19.60;59.83;101559.16;5122333;27;45366;-61
2022/08/20 06:42:48;;;;;;;;;3.25;3.00;;;;;19.73;60.33;101589.09;5117094;27;45876;-61
2022/08/20 06:45:16;;;;;;;;;4.75;3.00;;;;;19.69;59.54;101566.75;5116045;27;47220;-61
2022/08/20 06:47:43;;;;;;;;;1.75;1.75;;;;;19.72;59.91;101574.69;5119298;27;45495;-61
2022/08/20 06:50:12;;;;;;;;;3.75;2.50;;;;;19.71;60.07;101577.50;5102591;27;45291;-63
2022/08/20 06:52:39;;;;;;;;;3.00;3.00;;;;;19.74;59.99;101575.47;5113933;27;45499;-64
2022/08/20 06:55:07;;;;;;;;;3.75;2.25;;;;;19.68;59.76;101572.25;5120058;27;45431;-64
2022/08/20 06:57:33;;;;;;;;;4.25;3.50;;;;;19.77;60.25;101577.19;5090445;27;45519;-65
2022/08/20 06:59:59;;;;;;;;;2.25;2.25;;;;;19.78;60.03;101579.81;5108802;27;45459;-65
2022/08/20 07:02:25;;;;;;;;;2.25;2.25;;;;;19.76;60.11;101568.19;5114481;27;45226;-65
2022/08/20 07:04:50;;;;;;;;;5.50;2.75;;;;;19.81;59.90;101578.72;5118721;27;46630;-65
2022/08/20 07:07:17;;;;;;;;;4.50;3.50;;;;;19.83;59.83;101578.66;5101808;27;45226;-65
2022/08/20 07:09:42;;;;;;;;;4.00;3.00;;;;;19.86;59.67;101571.22;5116666;27;45483;-65
2022/08/20 07:12:09;;;;;;;;;2.50;2.00;;;;;19.81;59.60;101559.78;5112031;27;45952;-66
2022/08/20 07:14:35;;;;;;;;;2.50;2.50;;;;;19.93;59.75;101577.13;5119904;27;45451;-65
2022/08/20 07:17:04;;;;;;;;;3.00;2.00;;;;;19.92;60.03;101568.16;5120495;27;45400;-66
2022/08/20 07:19:30;;;;;;;;;2.50;2.00;;;;;19.90;59.73;101567.38;5121587;27;45476;-65
2022/08/20 07:21:55;;;;;;;;;3.00;3.00;;;;;19.90;59.46;101558.38;5115813;27;45305;-65
2022/08/20 07:24:21;;;;;;;;;3.75;2.00;;;;;19.98;59.56;101575.94;5114074;27;46036;-65
2022/08/20 07:26:48;;;;;;;;;4.00;2.00;;;;;20.01;59.53;101565.88;5118514;27;45356;-66
2022/08/20 07:29:13;;;;;;;;;3.00;2.00;;;;;20.02;59.48;101567.63;5113669;27;45404;-65
2022/08/20 07:34:22;;;;;;;;;2.50;2.00;;;;;20.06;59.49;101583.59;5114415;27;45677;-65
2022/08/20 07:36:49;;;;;;;;;5.00;2.75;;;;;20.01;59.80;101564.00;5115496;27;45507;-65
2022/08/20 07:39:14;;;;;;;;;5.25;2.00;;;;;20.06;59.64;101578.16;5109439;27;45279;-65
2022/08/20 07:41:39;;;;;;;;;3.50;3.00;;;;;20.10;59.73;101566.19;5117969;27;45489;-65
2022/08/20 07:44:05;;;;;;;;;3.50;3.00;;;;;20.14;59.38;101575.88;5119522;27;45494;-65
2022/08/20 07:46:31;;;;;;;;;4.25;2.00;;;;;20.24;59.79;101586.19;5120984;27;45270;-65
2022/08/20 07:48:56;;;;;;;;;4.50;2.00;;;;;20.26;59.84;101589.66;5117303;27;45626;-65
2022/08/20 07:51:22;;;;;;;;;3.75;2.50;;;;;20.24;60.22;101580.75;5116164;27;45255;-65
2022/08/20 07:53:49;;;;;;;;;4.50;3.50;;;;;20.30;59.97;101588.53;5100355;27;48393;-65
2022/08/20 07:56:18;;;;;;;;;3.25;2.75;;;;;20.34;60.50;101600.94;5119349;27;45534;-64
2022/08/20 07:58:50;;;;;;;;;3.25;2.75;;;;;20.32;59.55;101592.03;5109411;27;45537;-64
2022/08/20 08:01:29;;;;;;;;;4.25;2.50;;;;;20.42;59.60;101597.78;5116887;27;45362;-65
2022/08/20 08:03:56;;;;;;;;;4.75;2.50;;;;;20.42;59.80;101593.22;5112464;27;46596;-64
2022/08/20 08:06:23;;;;;;;;;2.75;2.75;;;;;20.41;59.56;101586.03;5112261;27;45479;-64
2022/08/20 08:08:49;;;;;;;;;4.75;3.00;;;;;20.52;59.31;101593.53;5110046;27;45327;-63
2022/08/20 08:11:15;;;;;;;;;2.25;1.25;;;;;20.58;59.07;101598.59;5102230;27;45729;-64
2022/08/20 08:13:41;;;;;;;;;3.50;2.25;;;;;20.55;59.80;101579.78;5116166;27;46000;-65
2022/08/20 08:16:08;;;;;;;;;2.75;2.00;;;;;20.64;59.78;101591.94;5113183;27;45364;-64
2022/08/20 08:19:02;;;;;;;;;4.00;2.25;;;;;20.69;59.62;101595.25;5122376;27;45425;-65
2022/08/20 08:21:29;;;;;;;;;3.00;1.75;;;;;20.72;59.11;101598.63;5113689;27;45387;-65
2022/08/20 08:23:55;;;;;;;;;2.00;2.00;;;;;20.75;59.16;101597.59;5112055;27;46186;-65
2022/08/20 08:26:21;;;;;;;;;2.75;2.00;;;;;20.76;59.31;101590.31;5119991;27;45497;-65
2022/08/20 08:28:46;;;;;;;;;2.50;2.00;;;;;20.76;59.53;101587.59;5117704;27;45425;-66
2022/08/20 08:31:13;;;;;;;;;2.75;2.75;;;;;20.86;58.69;101602.34;5100894;27;45715;-64
2022/08/20 08:33:39;;;;;;;;;2.00;2.00;;;;;20.88;59.55;101606.72;5123100;27;45349;-64
2022/08/20 08:36:15;;;;;;;;;2.25;2.00;;;;;20.91;58.73;101611.94;5113160;27;45534;-63
2022/08/20 08:38:43;;;;;;;;;3.00;2.00;;;;;20.95;58.96;101611.72;5119222;27;45604;-64
2022/08/20 08:41:30;;;;;;;;;1.75;1.75;;;;;20.95;59.66;101604.50;5122813;27;45480;-64
2022/08/20 08:44:22;;;;;;;;;4.00;2.75;;;;;21.00;59.21;101602.34;5121255;27;46172;-64
2022/08/20 08:46:50;;;;;;;;;2.50;2.50;;;;;21.04;58.58;101595.75;5122030;27;45673;-65
2022/08/20 08:49:23;;;;;;;;;3.75;2.75;;;;;21.08;58.45;101601.84;5120285;27;45369;-65
2022/08/20 08:51:55;;;;;;;;;7.00;3.00;;;;;21.07;58.33;101592.84;5111025;27;45397;-66
2022/08/20 08:54:26;;;;;;;;;3.75;2.50;;;;;21.14;58.51;101595.19;5120323;27;45549;-65
2022/08/20 08:56:52;;;;;;;;;2.25;2.00;;;;;21.10;57.87;101589.94;5122298;27;45515;-65
2022/08/20 08:59:18;;;;;;;;;3.00;2.00;;;;;21.19;57.98;101599.34;5117392;27;45618;-65
2022/08/20 09:01:47;;;;;;;;;1.50;1.50;;;;;21.22;57.67;101595.56;5121091;27;45397;-65
2022/08/20 09:04:15;;;;;;;;;2.75;2.00;;;;;21.25;57.85;101598.06;5101769;27;45454;-65
2022/08/20 09:06:42;;;;;;;;;3.50;2.00;;;;;21.26;58.65;101594.38;5116485;27;45539;-64
2022/08/20 09:09:18;;;;;;;;;2.25;2.25;;;;;21.31;58.23;101603.09;5118121;27;45490;-65
2022/08/20 09:11:47;;;;;;;;;2.00;2.00;;;;;21.35;57.83;101604.69;5110815;27;45455;-65
2022/08/20 09:14:12;;;;;;;;;1.00;1.00;;;;;21.35;57.83;101592.91;5122357;27;45322;-65
2022/08/20 09:16:38;;;;;;;;;2.25;2.25;;;;;21.43;57.30;101596.00;5121167;27;45630;-65
2022/08/20 09:19:03;;;;;;;;;3.75;3.00;;;;;21.40;57.62;101580.81;5122162;27;45417;-65
2022/08/20 09:21:28;;;;;;;;;7.00;3.00;;;;;21.43;57.37;101574.28;5111029;27;45437;-66
2022/08/20 09:23:54;;;;;;;;;1.75;1.00;;;;;21.51;57.64;101591.00;5120879;27;51949;-65
2022/08/20 09:26:19;;;;;;;;;4.75;2.00;;;;;21.48;57.79;101588.47;5116999;27;45470;-64
2022/08/20 09:28:45;;;;;;;;;3.50;2.25;;;;;21.52;56.87;101592.75;5110101;27;45538;-64
2022/08/20 09:31:10;;;;;;;;;3.00;3.00;;;;;21.56;57.32;101591.56;5116729;27;45427;-64
2022/08/20 09:33:35;;;;;;;;;2.00;2.00;;;;;21.49;56.96;101576.66;5105942;27;45408;-64
2022/08/20 09:36:01;;;;;;;;;2.00;2.00;;;;;21.52;57.84;101579.16;5116253;27;45450;-64
2022/08/20 09:38:26;;;;;;;;;5.50;2.00;;;;;21.56;57.13;101585.25;5122185;27;45597;-64
2022/08/20 09:40:51;;;;;;;;;7.25;2.00;;;;;21.58;57.33;101581.47;5118275;27;45367;-64
2022/08/20 09:43:17;;;;;;;;;4.25;3.00;;;;;21.56;57.33;101575.25;5121311;27;45302;-64
2022/08/20 09:45:42;;;;;;;;;2.25;2.25;;;;;21.64;57.00;101588.34;5119664;27;45297;-64
2022/08/20 09:48:08;;;;;;;;;2.50;2.00;;;;;21.62;56.38;101582.16;5117115;27;45562;-65
2022/08/20 09:50:35;;;;;;;;;2.00;1.50;;;;;21.67;56.61;101589.97;5118031;27;45907;-65
2022/08/20 09:53:02;;;;;;;;;4.75;4.50;;;;;21.67;56.72;101585.44;5109989;27;46045;-64
2022/08/20 09:55:42;;;;;;;;;2.50;2.00;;;;;21.69;57.09;101588.06;5109759;27;45598;-65
2022/08/20 09:58:16;;;;;;;;;2.25;1.00;;;;;21.73;56.50;101587.72;5119918;27;45636;-64
2022/08/20 10:00:41;;;;;;;;;1.75;1.00;;;;;21.79;55.36;101583.75;5107809;27;45372;-64
2022/08/20 10:03:07;;;;;;;;;3.25;2.00;;;;;21.79;55.08;101581.03;5113773;27;46074;-64
2022/08/20 10:05:32;;;;;;;;;2.25;2.00;;;;;21.83;55.16;101575.31;5115396;27;45356;-64
2022/08/20 10:07:57;;;;;;;;;2.00;1.00;;;;;21.86;54.70;101573.34;5121454;27;45403;-64
2022/08/20 10:10:23;;;;;;;;;3.50;2.50;;;;;21.93;54.57;101588.25;5120747;27;45440;-64
2022/08/20 10:12:48;;;;;;;;;2.25;1.00;;;;;21.95;54.76;101575.44;5120698;27;45713;-64
2022/08/20 10:15:13;;;;;;;;;2.00;1.00;;;;;21.98;54.33;101573.38;5119668;27;45424;-64
2022/08/20 10:17:41;;;;;;;;;4.00;2.00;;;;;22.04;54.72;101572.09;5119763;27;46963;-64
2022/08/20 10:20:09;;;;;;;;;1.25;1.00;;;;;22.11;53.87;101575.28;5119169;27;45714;-64
2022/08/20 10:22:34;;;;;;;;;3.25;2.00;;;;;22.07;53.91;101563.75;5099159;27;48045;-64
2022/08/20 10:25:00;;;;;;;;;3.75;2.25;;;;;22.16;54.30;101567.69;5114362;27;45363;-63
2022/08/20 10:27:25;;;;;;;;;3.50;3.00;;;;;22.18;53.53;101574.72;5117054;27;45377;-64
2022/08/20 10:29:50;;;;;;;;;2.50;2.00;;;;;22.16;54.17;101565.81;5115003;27;45455;-64
2022/08/20 10:32:16;;;;;;;;;3.25;3.00;;;;;22.22;53.17;101561.81;5116490;27;45426;-64
2022/08/20 10:34:43;;;;;;;;;5.75;2.00;;;;;22.25;53.52;101563.44;5105698;27;45552;-64
2022/08/20 10:37:14;;;;;;;;;2.00;2.00;;;;;22.21;53.21;101569.09;5118341;27;45651;-64
2022/08/20 10:39:40;;;;;;;;;4.00;1.75;;;;;22.28;53.17;101563.25;5119360;27;45663;-62
2022/08/20 10:42:05;;;;;;;;;1.00;1.00;;;;;22.32;53.12;101562.06;5120001;27;45495;-62
2022/08/20 10:44:30;;;;;;;;;2.00;2.00;;;;;22.35;52.95;101561.88;5120692;27;45458;-62
2022/08/20 10:46:56;;;;;;;;;3.25;2.00;;;;;22.39;52.27;101556.13;5122136;27;49219;-62
2022/08/20 10:49:21;;;;;;;;;4.25;2.75;;;;;22.43;52.57;101567.66;5120947;27;45316;-62
2022/08/20 10:51:46;;;;;;;;;3.00;1.75;;;;;22.45;51.99;101562.97;5120569;27;49052;-62
2022/08/20 10:54:12;;;;;;;;;1.00;1.00;;;;;22.46;52.14;101564.72;5120961;27;45169;-62
2022/08/20 10:56:37;;;;;;;;;0.75;0.75;;;;;22.48;51.92;101559.16;5102462;27;45172;-62
2022/08/20 10:59:02;;;;;;;;;3.00;1.75;;;;;22.50;51.10;101562.66;5115834;27;45302;-62
2022/08/20 11:01:28;;;;;;;;;2.50;2.00;;;;;22.53;51.64;101562.44;5113765;27;45382;-62
2022/08/20 11:03:53;;;;;;;;;4.00;3.00;;;;;22.56;51.69;101560.38;5102118;27;48412;-62
2022/08/20 11:06:18;;;;;;;;;3.25;2.00;;;;;22.55;51.14;101553.22;5110511;27;45322;-62
2022/08/20 11:08:44;;;;;;;;;1.50;1.50;;;;;22.57;50.98;101547.66;5111322;27;45324;-62
2022/08/20 11:11:09;;;;;;;;;4.50;4.25;;;;;22.58;51.15;101552.09;5103200;27;47260;-62
2022/08/20 11:13:35;;;;;;;;;3.75;2.50;;;;;22.62;51.30;101558.19;5115964;27;46105;-62
2022/08/20 11:16:02;;;;;;;;;2.25;2.00;;;;;22.64;50.43;101561.69;5119372;27;45264;-62
2022/08/20 11:18:27;;;;;;;;;1.75;1.50;;;;;22.66;50.14;101560.59;5117749;27;45572;-62
2022/08/20 11:20:54;;;;;;;;;3.00;1.00;;;;;22.66;50.74;101546.13;5118017;27;45398;-62
2022/08/20 11:23:19;;;;;;;;;3.50;2.00;;;;;22.68;50.40;101563.22;5121573;27;45353;-62
2022/08/20 11:25:45;;;;;;;;;2.75;2.75;;;;;22.66;49.65;101551.56;5119894;27;45463;-62
2022/08/20 11:28:11;;;;;;;;;2.50;2.50;;;;;22.71;50.48;101543.94;5118608;27;45421;-62
2022/08/20 11:30:37;;;;;;;;;1.25;1.25;;;;;22.77;50.96;101543.53;5121326;27;46470;-62
2022/08/20 11:33:03;;;;;;;;;3.25;1.25;;;;;22.80;49.94;101559.63;5121321;27;45244;-62
2022/08/20 11:35:31;;;;;;;;;2.00;1.00;;;;;22.81;50.29;101560.50;5121502;27;45228;-62
2022/08/20 11:37:59;;;;;;;;;4.00;1.75;;;;;22.85;49.63;101565.59;5110047;27;45458;-62